sensor_id;sensor_type;location;lat;lon;timestamp;pressure;altitude;pressure_sealevel;temperature;humidity
52983;BME280;48698;45.736;13.926;2023-06-24T00:03:39;97521.22;;;21.02;100.00
52983;BME280;48698;45.736;13.926;2023-06-24T00:08:42;97626.97;;;21.73;100.00
52983;BME280;48698;45.736;13.926;2023-06-24T00:13:45;97600.03;;;21.54;100.00
52983;BME280;48698;45.736;13.926;2023-06-24T00:18:48;97621.03;;;21.60;100.00
52983;BME280;48698;45.736;13.926;2023-06-24T00:23:50;97469.03;;;20.75;100.00
52983;BME280;48698;45.736;13.926;2023-06-24T00:28:53;97518.50;;;21.22;100.00
52983;BME280;48698;45.736;13.926;2023-06-24T00:33:56;97589.78;;;21.57;100.00
52983;BME280;48698;45.736;13.926;2023-06-24T00:39:09;97590.63;;;21.48;100.00
52983;BME280;48698;45.736;13.926;2023-06-24T00:44:12;97515.72;;;20.94;100.00
52983;BME280;48698;45.736;13.926;2023-06-24T00:49:15;97605.44;;;21.35;100.00
52983;BME280;48698;45.736;13.926;2023-06-24T00:54:28;97587.03;;;21.21;100.00
52983;BME280;48698;45.736;13.926;2023-06-24T00:59:44;97611.31;;;21.30;100.00
52983;BME280;48698;45.736;13.926;2023-06-24T01:04:48;97616.88;;;21.09;100.00
52983;BME280;48698;45.736;13.926;2023-06-24T01:09:50;97616.88;;;21.19;100.00
52983;BME280;48698;45.736;13.926;2023-06-24T01:15:03;97598.38;;;20.95;100.00
52983;BME280;48698;45.736;13.926;2023-06-24T01:20:11;97620.72;;;21.17;100.00
52983;BME280;48698;45.736;13.926;2023-06-24T01:30:49;97547.00;;;20.68;100.00
52983;BME280;48698;45.736;13.926;2023-06-24T01:35:58;97518.31;;;20.57;100.00
52983;BME280;48698;45.736;13.926;2023-06-24T01:41:04;97599.53;;;21.02;100.00
52983;BME280;48698;45.736;13.926;2023-06-24T01:46:22;97642.03;;;21.10;100.00
52983;BME280;48698;45.736;13.926;2023-06-24T01:51:28;97643.00;;;20.90;100.00
52983;BME280;48698;45.736;13.926;2023-06-24T01:56:35;97582.06;;;20.49;100.00
52983;BME280;48698;45.736;13.926;2023-06-24T02:01:39;97712.34;;;20.99;100.00
52983;BME280;48698;45.736;13.926;2023-06-24T02:06:47;97454.63;;;19.59;100.00
52983;BME280;48698;45.736;13.926;2023-06-24T02:12:02;97601.69;;;20.51;100.00
52983;BME280;48698;45.736;13.926;2023-06-24T02:17:08;97595.81;;;20.27;100.00
52983;BME280;48698;45.736;13.926;2023-06-24T02:22:18;97653.50;;;20.54;100.00
52983;BME280;48698;45.736;13.926;2023-06-24T02:27:21;97699.69;;;20.99;100.00
52983;BME280;48698;45.736;13.926;2023-06-24T02:32:25;97640.16;;;20.72;100.00
52983;BME280;48698;45.736;13.926;2023-06-24T02:37:28;97675.69;;;20.96;100.00
52983;BME280;48698;45.736;13.926;2023-06-24T02:42:30;97508.34;;;20.00;100.00
52983;BME280;48698;45.736;13.926;2023-06-24T02:47:45;97534.25;;;20.41;100.00
52983;BME280;48698;45.736;13.926;2023-06-24T02:52:58;97577.41;;;20.60;100.00
52983;BME280;48698;45.736;13.926;2023-06-24T02:58:03;97622.56;;;20.87;100.00
52983;BME280;48698;45.736;13.926;2023-06-24T03:03:12;97584.19;;;20.55;100.00
52983;BME280;48698;45.736;13.926;2023-06-24T03:08:15;97604.09;;;20.63;100.00
52983;BME280;48698;45.736;13.926;2023-06-24T03:13:18;97673.41;;;20.82;100.00
52983;BME280;48698;45.736;13.926;2023-06-24T03:18:20;97616.03;;;20.61;100.00
52983;BME280;48698;45.736;13.926;2023-06-24T03:23:34;97647.97;;;20.75;100.00
52983;BME280;48698;45.736;13.926;2023-06-24T03:28:36;97678.09;;;20.80;100.00
52983;BME280;48698;45.736;13.926;2023-06-24T03:33:51;97561.69;;;20.16;100.00
52983;BME280;48698;45.736;13.926;2023-06-24T03:38:53;97618.25;;;20.27;100.00
52983;BME280;48698;45.736;13.926;2023-06-24T03:43:56;97530.81;;;19.71;100.00
52983;BME280;48698;45.736;13.926;2023-06-24T03:48:59;97735.38;;;20.93;100.00
52983;BME280;48698;45.736;13.926;2023-06-24T03:54:03;97520.09;;;19.90;100.00
52983;BME280;48698;45.736;13.926;2023-06-24T03:59:05;97673.38;;;20.63;100.00
52983;BME280;48698;45.736;13.926;2023-06-24T04:04:08;97671.38;;;20.65;100.00
52983;BME280;48698;45.736;13.926;2023-06-24T04:09:19;97526.09;;;19.63;100.00
52983;BME280;48698;45.736;13.926;2023-06-24T04:14:21;97610.22;;;20.06;100.00
52983;BME280;48698;45.736;13.926;2023-06-24T04:19:24;97496.63;;;19.31;100.00
52983;BME280;48698;45.736;13.926;2023-06-24T04:24:27;97669.06;;;20.32;100.00
52983;BME280;48698;45.736;13.926;2023-06-24T04:29:30;97720.81;;;20.56;100.00
52983;BME280;48698;45.736;13.926;2023-06-24T04:34:42;97747.97;;;20.74;100.00
52983;BME280;48698;45.736;13.926;2023-06-24T04:39:46;97675.25;;;20.23;100.00
52983;BME280;48698;45.736;13.926;2023-06-24T04:44:48;97768.47;;;20.95;100.00
52983;BME280;48698;45.736;13.926;2023-06-24T04:49:53;97748.69;;;20.85;100.00
52983;BME280;48698;45.736;13.926;2023-06-24T04:54:56;97674.09;;;20.25;100.00
52983;BME280;48698;45.736;13.926;2023-06-24T05:00:09;97799.88;;;20.96;100.00
52983;BME280;48698;45.736;13.926;2023-06-24T05:05:12;97813.19;;;20.88;100.00
52983;BME280;48698;45.736;13.926;2023-06-24T05:10:15;97720.97;;;19.94;100.00
52983;BME280;48698;45.736;13.926;2023-06-24T05:15:18;97593.84;;;19.07;100.00
52983;BME280;48698;45.736;13.926;2023-06-24T05:20:20;97653.06;;;19.49;100.00
52983;BME280;48698;45.736;13.926;2023-06-24T05:25:24;97828.44;;;20.59;100.00
52983;BME280;48698;45.736;13.926;2023-06-24T05:30:27;97707.41;;;19.75;100.00
52983;BME280;48698;45.736;13.926;2023-06-24T05:35:30;97641.59;;;19.47;100.00
52983;BME280;48698;45.736;13.926;2023-06-24T05:40:33;97759.81;;;20.42;100.00
52983;BME280;48698;45.736;13.926;2023-06-24T05:45:36;97841.38;;;21.05;100.00
52983;BME280;48698;45.736;13.926;2023-06-24T05:50:39;97896.81;;;21.09;100.00
52983;BME280;48698;45.736;13.926;2023-06-24T05:55:42;97895.44;;;21.14;100.00
52983;BME280;48698;45.736;13.926;2023-06-24T06:00:53;97780.78;;;20.79;100.00
52983;BME280;48698;45.736;13.926;2023-06-24T06:05:57;97899.09;;;21.53;100.00
52983;BME280;48698;45.736;13.926;2023-06-24T06:11:00;97772.13;;;20.75;100.00
52983;BME280;48698;45.736;13.926;2023-06-24T06:16:06;97787.00;;;20.60;100.00
52983;BME280;48698;45.736;13.926;2023-06-24T06:21:10;97910.78;;;21.54;100.00
52983;BME280;48698;45.736;13.926;2023-06-24T06:26:14;97880.03;;;21.05;100.00
52983;BME280;48698;45.736;13.926;2023-06-24T06:31:16;97862.53;;;21.49;100.00
52983;BME280;48698;45.736;13.926;2023-06-24T06:36:20;97869.41;;;22.01;100.00
52983;BME280;48698;45.736;13.926;2023-06-24T06:41:23;97685.50;;;21.45;100.00
52983;BME280;48698;45.736;13.926;2023-06-24T06:46:27;97861.84;;;22.61;100.00
52983;BME280;48698;45.736;13.926;2023-06-24T06:51:39;97889.63;;;22.82;100.00
52983;BME280;48698;45.736;13.926;2023-06-24T06:56:41;97833.06;;;22.79;100.00
52983;BME280;48698;45.736;13.926;2023-06-24T07:01:44;97846.59;;;23.06;100.00
52983;BME280;48698;45.736;13.926;2023-06-24T07:06:48;97696.56;;;22.72;100.00
52983;BME280;48698;45.736;13.926;2023-06-24T07:11:51;97799.84;;;23.49;100.00
52983;BME280;48698;45.736;13.926;2023-06-24T07:16:54;97771.47;;;23.44;100.00
52983;BME280;48698;45.736;13.926;2023-06-24T07:21:56;97637.31;;;22.69;100.00
52983;BME280;48698;45.736;13.926;2023-06-24T07:26:59;97891.22;;;24.10;100.00
52983;BME280;48698;45.736;13.926;2023-06-24T07:32:02;97832.50;;;23.83;100.00
52983;BME280;48698;45.736;13.926;2023-06-24T07:37:15;97762.63;;;23.77;100.00
52983;BME280;48698;45.736;13.926;2023-06-24T07:42:25;97848.50;;;24.30;100.00
52983;BME280;48698;45.736;13.926;2023-06-24T07:47:32;97838.47;;;24.22;100.00
52983;BME280;48698;45.736;13.926;2023-06-24T07:52:35;97832.75;;;24.85;100.00
52983;BME280;48698;45.736;13.926;2023-06-24T07:57:37;97880.56;;;24.78;100.00
52983;BME280;48698;45.736;13.926;2023-06-24T08:02:41;97893.19;;;25.20;100.00
52983;BME280;48698;45.736;13.926;2023-06-24T08:07:44;97855.47;;;25.17;98.61
52983;BME280;48698;45.736;13.926;2023-06-24T08:12:47;97869.47;;;24.89;96.67
52983;BME280;48698;45.736;13.926;2023-06-24T08:18:00;97740.78;;;24.98;97.96
52983;BME280;48698;45.736;13.926;2023-06-24T08:23:02;97800.91;;;25.69;92.73
52983;BME280;48698;45.736;13.926;2023-06-24T08:28:14;97859.44;;;26.38;90.55
52983;BME280;48698;45.736;13.926;2023-06-24T08:33:35;97814.88;;;25.98;86.01
52983;BME280;48698;45.736;13.926;2023-06-24T08:38:56;97752.09;;;26.08;86.48
52983;BME280;48698;45.736;13.926;2023-06-24T08:43:59;97791.38;;;26.05;88.70
52983;BME280;48698;45.736;13.926;2023-06-24T08:54:11;97861.22;;;27.41;87.76
52983;BME280;48698;45.736;13.926;2023-06-24T08:59:14;97829.88;;;27.67;81.13
52983;BME280;48698;45.736;13.926;2023-06-24T09:04:21;97758.25;;;27.35;81.40
52983;BME280;48698;45.736;13.926;2023-06-24T09:09:24;97771.41;;;27.62;78.43
52983;BME280;48698;45.736;13.926;2023-06-24T09:14:29;97764.97;;;27.55;76.93
52983;BME280;48698;45.736;13.926;2023-06-24T09:19:32;97871.09;;;28.41;75.22
52983;BME280;48698;45.736;13.926;2023-06-24T09:24:38;97639.84;;;27.14;76.41
52983;BME280;48698;45.736;13.926;2023-06-24T10:14:47;97799.22;;;28.03;70.76
52983;BME280;48698;45.736;13.926;2023-06-24T10:19:53;97662.44;;;27.46;69.73
52983;BME280;48698;45.736;13.926;2023-06-24T10:25:00;97801.88;;;28.48;69.70
52983;BME280;48698;45.736;13.926;2023-06-24T10:30:04;97877.06;;;28.21;70.92
52983;BME280;48698;45.736;13.926;2023-06-24T10:35:07;97874.16;;;28.83;68.67
52983;BME280;48698;45.736;13.926;2023-06-24T10:40:10;97636.28;;;25.97;73.03
52983;BME280;48698;45.736;13.926;2023-06-24T10:45:13;97881.25;;;27.56;70.94
52983;BME280;48698;45.736;13.926;2023-06-24T10:50:19;97874.19;;;28.38;72.60
52983;BME280;48698;45.736;13.926;2023-06-24T10:55:25;97797.13;;;27.67;70.81
52983;BME280;48698;45.736;13.926;2023-06-24T11:00:28;97594.81;;;25.87;74.35
52983;BME280;48698;45.736;13.926;2023-06-24T11:05:31;97851.38;;;27.62;70.92
52983;BME280;48698;45.736;13.926;2023-06-24T11:10:48;97857.66;;;26.77;74.40
52983;BME280;48698;45.736;13.926;2023-06-24T11:15:51;97779.63;;;27.00;74.25
52983;BME280;48698;45.736;13.926;2023-06-24T11:20:56;97846.63;;;27.87;74.14
52983;BME280;48698;45.736;13.926;2023-06-24T11:26:02;97828.03;;;28.05;73.91
52983;BME280;48698;45.736;13.926;2023-06-24T11:31:06;97811.00;;;28.03;74.53
52983;BME280;48698;45.736;13.926;2023-06-24T11:36:11;97772.97;;;28.02;72.29
52983;BME280;48698;45.736;13.926;2023-06-24T11:41:14;97771.91;;;27.35;71.92
52983;BME280;48698;45.736;13.926;2023-06-24T11:46:23;97651.06;;;26.58;73.72
52983;BME280;48698;45.736;13.926;2023-06-24T11:51:26;97729.16;;;27.04;75.87
52983;BME280;48698;45.736;13.926;2023-06-24T11:56:35;97799.69;;;27.07;77.09
52983;BME280;48698;45.736;13.926;2023-06-24T12:57:46;97795.81;;;27.24;82.84
52983;BME280;48698;45.736;13.926;2023-06-24T13:02:50;97655.09;;;26.31;80.07
52983;BME280;48698;45.736;13.926;2023-06-24T13:07:53;97813.34;;;27.61;80.06
52983;BME280;48698;45.736;13.926;2023-06-24T13:12:55;97780.78;;;27.37;81.14
52983;BME280;48698;45.736;13.926;2023-06-24T13:17:59;97822.38;;;26.92;81.75
52983;BME280;48698;45.736;13.926;2023-06-24T13:23:01;97724.72;;;25.93;82.68
52983;BME280;48698;45.736;13.926;2023-06-24T13:28:04;97825.69;;;26.71;84.06
52983;BME280;48698;45.736;13.926;2023-06-24T13:33:08;97828.41;;;27.80;81.33
52983;BME280;48698;45.736;13.926;2023-06-24T13:38:11;97794.94;;;27.63;78.90
52983;BME280;48698;45.736;13.926;2023-06-24T13:43:14;97728.34;;;26.49;79.09
52983;BME280;48698;45.736;13.926;2023-06-24T13:48:17;97823.94;;;27.25;81.62
52983;BME280;48698;45.736;13.926;2023-06-24T13:53:20;97828.72;;;26.76;80.64
52983;BME280;48698;45.736;13.926;2023-06-24T13:58:22;97784.91;;;26.06;78.81
52983;BME280;48698;45.736;13.926;2023-06-24T14:03:25;97839.81;;;27.21;76.15
52983;BME280;48698;45.736;13.926;2023-06-24T14:08:28;97852.56;;;26.74;76.64
52983;BME280;48698;45.736;13.926;2023-06-24T14:13:31;97845.31;;;26.26;75.33
52983;BME280;48698;45.736;13.926;2023-06-24T14:18:34;97798.53;;;26.14;75.50
52983;BME280;48698;45.736;13.926;2023-06-24T14:23:37;97718.22;;;26.27;75.33
52983;BME280;48698;45.736;13.926;2023-06-24T14:28:40;97799.91;;;26.98;73.60
52983;BME280;48698;45.736;13.926;2023-06-24T14:33:42;97828.94;;;27.13;72.75
52983;BME280;48698;45.736;13.926;2023-06-24T14:38:45;97809.97;;;27.82;74.68
52983;BME280;48698;45.736;13.926;2023-06-24T14:43:48;97715.13;;;27.38;72.23
52983;BME280;48698;45.736;13.926;2023-06-24T14:48:51;97721.94;;;27.11;71.90
52983;BME280;48698;45.736;13.926;2023-06-24T14:53:54;97792.16;;;27.40;70.52
52983;BME280;48698;45.736;13.926;2023-06-24T14:58:57;97755.72;;;27.33;71.00
52983;BME280;48698;45.736;13.926;2023-06-24T15:04:00;97762.19;;;27.63;71.73
52983;BME280;48698;45.736;13.926;2023-06-24T15:09:03;97755.25;;;27.60;72.51
52983;BME280;48698;45.736;13.926;2023-06-24T15:14:05;97775.75;;;27.48;71.94
52983;BME280;48698;45.736;13.926;2023-06-24T15:19:08;97801.38;;;27.47;71.72
52983;BME280;48698;45.736;13.926;2023-06-24T15:24:11;97801.03;;;27.88;72.52
52983;BME280;48698;45.736;13.926;2023-06-24T15:29:14;97750.84;;;27.51;71.62
52983;BME280;48698;45.736;13.926;2023-06-24T15:34:17;97787.84;;;28.37;75.24
52983;BME280;48698;45.736;13.926;2023-06-24T15:39:21;97797.34;;;28.03;72.27
52983;BME280;48698;45.736;13.926;2023-06-24T16:09:21;97753.91;;;26.95;77.53
52983;BME280;48698;45.736;13.926;2023-06-24T16:14:25;97591.53;;;25.29;80.09
52983;BME280;48698;45.736;13.926;2023-06-24T16:19:28;97607.22;;;25.90;79.68
52983;BME280;48698;45.736;13.926;2023-06-24T16:24:31;97816.47;;;26.72;79.69
52983;BME280;48698;45.736;13.926;2023-06-24T16:29:33;97739.03;;;25.87;82.35
52983;BME280;48698;45.736;13.926;2023-06-24T16:34:36;97696.16;;;25.25;84.06
52983;BME280;48698;45.736;13.926;2023-06-24T16:39:39;97755.69;;;25.76;83.46
52983;BME280;48698;45.736;13.926;2023-06-24T16:44:42;97592.44;;;24.39;83.54
52983;BME280;48698;45.736;13.926;2023-06-24T16:49:48;97781.00;;;25.93;83.14
52983;BME280;48698;45.736;13.926;2023-06-24T16:54:55;97765.03;;;25.98;83.37
52983;BME280;48698;45.736;13.926;2023-06-24T16:59:59;97752.91;;;26.41;82.39
52983;BME280;48698;45.736;13.926;2023-06-24T17:05:02;97784.47;;;26.66;81.69
52983;BME280;48698;45.736;13.926;2023-06-24T17:10:05;97726.53;;;26.41;82.89
52983;BME280;48698;45.736;13.926;2023-06-24T17:15:08;97746.66;;;26.08;85.38
52983;BME280;48698;45.736;13.926;2023-06-24T17:20:12;97558.53;;;24.67;85.31
52983;BME280;48698;45.736;13.926;2023-06-24T17:25:15;97833.91;;;26.06;87.29
52983;BME280;48698;45.736;13.926;2023-06-24T17:30:18;97747.50;;;26.16;86.38
52983;BME280;48698;45.736;13.926;2023-06-24T17:35:21;97544.41;;;24.47;88.11
52983;BME280;48698;45.736;13.926;2023-06-24T17:40:24;97747.81;;;25.41;88.96
52983;BME280;48698;45.736;13.926;2023-06-24T17:45:27;97842.50;;;25.03;98.24
52983;BME280;48698;45.736;13.926;2023-06-24T17:50:33;97726.34;;;26.43;87.95
52983;BME280;48698;45.736;13.926;2023-06-24T17:55:36;97827.56;;;27.56;82.54
52983;BME280;48698;45.736;13.926;2023-06-24T18:00:39;97743.25;;;26.77;81.71
52983;BME280;48698;45.736;13.926;2023-06-24T18:05:42;97634.56;;;26.04;82.15
52983;BME280;48698;45.736;13.926;2023-06-24T18:10:45;97710.63;;;26.61;81.98
52983;BME280;48698;45.736;13.926;2023-06-24T18:15:47;97567.06;;;25.04;83.34
52983;BME280;48698;45.736;13.926;2023-06-24T18:20:50;97751.78;;;25.95;85.55
52983;BME280;48698;45.736;13.926;2023-06-24T18:25:53;97827.94;;;26.03;86.94
52983;BME280;48698;45.736;13.926;2023-06-24T18:30:55;97596.97;;;24.88;86.08
52983;BME280;48698;45.736;13.926;2023-06-24T18:35:58;97555.25;;;23.55;87.46
52983;BME280;48698;45.736;13.926;2023-06-24T18:41:01;97685.34;;;23.38;97.78
52983;BME280;48698;45.736;13.926;2023-06-24T18:46:04;97629.06;;;22.43;100.00
52983;BME280;48698;45.736;13.926;2023-06-24T18:51:07;97852.56;;;23.90;100.00
52983;BME280;48698;45.736;13.926;2023-06-24T18:56:10;97827.59;;;23.34;100.00
52983;BME280;48698;45.736;13.926;2023-06-24T19:01:12;97850.41;;;23.41;100.00
52983;BME280;48698;45.736;13.926;2023-06-24T19:06:15;97852.22;;;23.23;100.00
52983;BME280;48698;45.736;13.926;2023-06-24T19:11:20;97868.94;;;22.81;100.00
52983;BME280;48698;45.736;13.926;2023-06-24T19:16:24;97880.34;;;22.85;100.00
52983;BME280;48698;45.736;13.926;2023-06-24T19:21:28;97890.94;;;22.69;100.00
52983;BME280;48698;45.736;13.926;2023-06-24T19:26:30;97871.88;;;22.41;100.00
52983;BME280;48698;45.736;13.926;2023-06-24T19:31:33;97836.78;;;22.12;100.00
52983;BME280;48698;45.736;13.926;2023-06-24T19:36:36;97885.88;;;22.37;100.00
52983;BME280;48698;45.736;13.926;2023-06-24T19:41:39;97905.66;;;22.37;100.00
52983;BME280;48698;45.736;13.926;2023-06-24T19:46:41;97909.66;;;22.43;100.00
52983;BME280;48698;45.736;13.926;2023-06-24T19:51:44;97833.38;;;22.01;100.00
52983;BME280;48698;45.736;13.926;2023-06-24T19:56:47;97790.88;;;21.74;100.00
52983;BME280;48698;45.736;13.926;2023-06-24T20:01:52;97910.22;;;22.37;100.00
52983;BME280;48698;45.736;13.926;2023-06-24T20:06:55;97901.84;;;22.30;100.00
52983;BME280;48698;45.736;13.926;2023-06-24T20:11:58;97899.56;;;22.26;100.00
52983;BME280;48698;45.736;13.926;2023-06-24T20:17:01;97821.44;;;21.65;100.00
52983;BME280;48698;45.736;13.926;2023-06-24T20:22:04;97759.16;;;21.28;100.00
52983;BME280;48698;45.736;13.926;2023-06-24T20:27:06;97856.00;;;21.71;100.00
52983;BME280;48698;45.736;13.926;2023-06-24T20:32:09;97877.94;;;21.87;100.00
52983;BME280;48698;45.736;13.926;2023-06-24T20:37:12;97843.78;;;21.67;100.00
52983;BME280;48698;45.736;13.926;2023-06-24T20:42:14;97877.69;;;21.90;100.00
52983;BME280;48698;45.736;13.926;2023-06-24T20:47:17;97809.06;;;21.53;100.00
52983;BME280;48698;45.736;13.926;2023-06-24T20:52:20;97870.38;;;21.81;100.00
52983;BME280;48698;45.736;13.926;2023-06-24T20:57:22;97826.84;;;21.46;100.00
52983;BME280;48698;45.736;13.926;2023-06-24T21:02:25;97891.88;;;21.54;100.00
52983;BME280;48698;45.736;13.926;2023-06-24T21:07:28;97829.53;;;21.27;100.00
52983;BME280;48698;45.736;13.926;2023-06-24T21:12:31;97871.34;;;21.42;100.00
52983;BME280;48698;45.736;13.926;2023-06-24T21:17:41;97889.00;;;21.65;100.00
52983;BME280;48698;45.736;13.926;2023-06-24T21:22:44;97884.75;;;21.62;100.00
52983;BME280;48698;45.736;13.926;2023-06-24T21:27:46;97895.25;;;21.56;100.00
52983;BME280;48698;45.736;13.926;2023-06-24T21:32:49;97893.13;;;21.59;100.00
52983;BME280;48698;45.736;13.926;2023-06-24T21:37:52;97895.53;;;21.53;100.00
52983;BME280;48698;45.736;13.926;2023-06-24T21:42:55;97900.25;;;21.51;100.00
52983;BME280;48698;45.736;13.926;2023-06-24T21:47:57;97864.06;;;21.13;100.00
52983;BME280;48698;45.736;13.926;2023-06-24T21:53:00;97884.53;;;21.26;100.00
52983;BME280;48698;45.736;13.926;2023-06-24T21:58:03;97825.13;;;20.76;100.00
52983;BME280;48698;45.736;13.926;2023-06-24T22:03:06;97915.00;;;21.28;100.00
52983;BME280;48698;45.736;13.926;2023-06-24T22:08:09;97805.19;;;20.58;100.00
52983;BME280;48698;45.736;13.926;2023-06-24T22:13:11;97838.47;;;20.78;100.00
52983;BME280;48698;45.736;13.926;2023-06-24T22:18:14;97902.56;;;21.16;100.00
52983;BME280;48698;45.736;13.926;2023-06-24T22:23:17;97894.19;;;20.88;100.00
52983;BME280;48698;45.736;13.926;2023-06-24T22:28:19;97850.59;;;20.53;100.00
52983;BME280;48698;45.736;13.926;2023-06-24T22:33:22;97871.69;;;20.78;100.00
52983;BME280;48698;45.736;13.926;2023-06-24T22:38:25;97862.19;;;20.74;100.00
52983;BME280;48698;45.736;13.926;2023-06-24T22:43:27;97890.78;;;20.86;100.00
52983;BME280;48698;45.736;13.926;2023-06-24T22:48:31;97845.41;;;20.71;100.00
52983;BME280;48698;45.736;13.926;2023-06-24T22:53:33;97876.41;;;20.76;100.00
52983;BME280;48698;45.736;13.926;2023-06-24T22:58:36;97881.56;;;19.96;100.00
52983;BME280;48698;45.736;13.926;2023-06-24T23:03:39;97874.22;;;19.35;100.00
52983;BME280;48698;45.736;13.926;2023-06-24T23:08:42;97863.47;;;19.13;100.00
52983;BME280;48698;45.736;13.926;2023-06-24T23:13:45;97884.97;;;19.46;100.00
52983;BME280;48698;45.736;13.926;2023-06-24T23:18:48;97889.44;;;19.68;100.00
52983;BME280;48698;45.736;13.926;2023-06-24T23:23:51;97889.09;;;19.61;100.00
52983;BME280;48698;45.736;13.926;2023-06-24T23:28:56;97897.97;;;19.41;100.00
52983;BME280;48698;45.736;13.926;2023-06-24T23:34:08;97867.72;;;18.72;100.00
52983;BME280;48698;45.736;13.926;2023-06-24T23:39:11;97848.00;;;18.83;100.00
52983;BME280;48698;45.736;13.926;2023-06-24T23:44:14;97880.53;;;18.80;100.00
52983;BME280;48698;45.736;13.926;2023-06-24T23:49:17;97861.09;;;18.54;100.00
52983;BME280;48698;45.736;13.926;2023-06-24T23:54:20;97876.72;;;19.04;100.00
52983;BME280;48698;45.736;13.926;2023-06-24T23:59:22;97878.66;;;19.14;100.00
